createdAt,value
2023-02-15T00:03:20.496Z,100.00
2023-02-15T00:07:22.792Z,100.00
2023-02-15T00:11:40.652Z,100.00
2023-02-15T00:15:42.837Z,100.00
2023-02-15T00:19:44.887Z,100.00
2023-02-15T00:23:46.894Z,100.00
2023-02-15T00:27:48.897Z,100.00
2023-02-15T00:31:51.560Z,100.00
2023-02-15T00:35:58.190Z,100.00
2023-02-15T00:40:00.225Z,100.00
2023-02-15T00:44:02.590Z,100.00
2023-02-15T00:48:05.322Z,100.00
2023-02-15T00:52:07.382Z,100.00
2023-02-15T00:56:11.229Z,100.00
2023-02-15T01:00:13.963Z,100.00
2023-02-15T01:04:16.011Z,100.00
2023-02-15T01:08:18.063Z,100.00
2023-02-15T01:12:20.081Z,100.00
2023-02-15T01:16:24.275Z,100.00
2023-02-15T01:20:29.142Z,100.00
2023-02-15T01:24:31.188Z,100.00
2023-02-15T01:28:33.548Z,100.00
2023-02-15T01:32:36.806Z,100.00
2023-02-15T01:36:38.834Z,100.00
2023-02-15T01:40:41.171Z,100.00
2023-02-15T01:45:00.428Z,100.00
2023-02-15T01:49:16.503Z,100.00
2023-02-15T01:53:41.999Z,100.00
2023-02-15T01:57:46.268Z,100.00
2023-02-15T02:01:51.221Z,100.00
2023-02-15T02:05:53.391Z,100.00
2023-02-15T02:09:55.597Z,100.00
2023-02-15T02:13:59.431Z,100.00
2023-02-15T02:18:18.585Z,100.00
2023-02-15T02:22:38.895Z,100.00
2023-02-15T02:27:01.680Z,100.00
2023-02-15T02:31:15.745Z,100.00
2023-02-15T02:35:28.029Z,100.00
2023-02-15T02:39:40.173Z,100.00
2023-02-15T02:43:51.574Z,100.00
2023-02-15T02:48:11.362Z,100.00
2023-02-15T02:52:52.356Z,100.00
2023-02-15T02:56:57.391Z,100.00
2023-02-15T03:01:15.113Z,100.00
2023-02-15T03:05:19.963Z,100.00
2023-02-15T03:09:42.408Z,100.00
2023-02-15T03:13:49.033Z,100.00
2023-02-15T03:17:58.505Z,100.00
2023-02-15T03:22:20.326Z,100.00
2023-02-15T03:26:24.786Z,100.00
2023-02-15T03:30:30.760Z,100.00
2023-02-15T03:34:33.185Z,100.00
2023-02-15T03:38:42.099Z,100.00
2023-02-15T03:42:47.034Z,100.00
2023-02-15T03:46:59.340Z,100.00
2023-02-15T03:51:24.985Z,100.00
2023-02-15T03:55:28.322Z,100.00
2023-02-15T03:59:49.070Z,100.00
2023-02-15T04:03:58.397Z,100.00
2023-02-15T04:08:00.422Z,100.00
2023-02-15T04:12:02.515Z,100.00
2023-02-15T04:16:06.070Z,100.00
2023-02-15T04:20:28.548Z,100.00
2023-02-15T04:24:49.151Z,100.00
2023-02-15T04:28:51.138Z,100.00
2023-02-15T04:32:54.866Z,100.00
2023-02-15T04:36:56.878Z,100.00
2023-02-15T04:40:58.961Z,100.00
2023-02-15T04:45:00.987Z,100.00
2023-02-15T04:49:03.743Z,100.00
2023-02-15T04:53:05.805Z,100.00
2023-02-15T04:57:07.933Z,100.00
2023-02-15T05:01:11.390Z,100.00
2023-02-15T05:05:16.002Z,100.00
2023-02-15T05:09:18.055Z,100.00
2023-02-15T05:13:20.146Z,100.00
2023-02-15T05:17:22.203Z,100.00
2023-02-15T05:21:24.446Z,100.00
2023-02-15T05:26:05.067Z,100.00
2023-02-15T05:30:12.464Z,100.00
2023-02-15T05:34:14.625Z,100.00
2023-02-15T05:38:16.726Z,100.00
2023-02-15T05:42:18.721Z,100.00
2023-02-15T05:46:20.751Z,100.00
2023-02-15T05:50:22.780Z,100.00
2023-02-15T05:54:25.323Z,100.00
2023-02-15T05:58:28.114Z,100.00
2023-02-15T06:02:30.186Z,100.00
2023-02-15T06:06:32.270Z,100.00
2023-02-15T06:10:34.377Z,100.00
2023-02-15T06:14:36.381Z,100.00
2023-02-15T06:18:38.432Z,100.00
2023-02-15T06:22:40.476Z,100.00
2023-02-15T06:26:42.546Z,100.00
2023-02-15T06:30:44.597Z,100.00
2023-02-15T06:34:48.503Z,100.00
2023-02-15T06:38:50.877Z,100.00
2023-02-15T06:42:52.911Z,100.00
2023-02-15T06:46:54.931Z,100.00
2023-02-15T06:50:56.977Z,100.00
2023-02-15T06:54:59.014Z,100.00
2023-02-15T06:59:01.160Z,100.00
2023-02-15T07:03:03.841Z,100.00
2023-02-15T07:07:10.053Z,100.00
2023-02-15T07:11:30.738Z,100.00
2023-02-15T07:15:32.783Z,100.00
2023-02-15T07:19:34.809Z,100.00
2023-02-15T07:23:38.375Z,100.00
2023-02-15T07:27:40.948Z,100.00
2023-02-15T07:31:46.108Z,100.00
2023-02-15T07:35:49.728Z,100.00
2023-02-15T07:39:51.786Z,100.00
2023-02-15T07:43:53.935Z,100.00
2023-02-15T07:47:55.971Z,100.00
2023-02-15T07:51:58.140Z,100.00
2023-02-15T07:56:01.999Z,100.00
2023-02-15T08:00:04.903Z,100.00
2023-02-15T08:04:14.609Z,100.00
2023-02-15T08:08:31.561Z,100.00
2023-02-15T08:12:33.563Z,100.00
2023-02-15T08:16:39.712Z,100.00
2023-02-15T08:20:41.850Z,100.00
2023-02-15T08:24:43.841Z,100.00
2023-02-15T08:28:47.301Z,100.00
2023-02-15T08:32:49.321Z,100.00
2023-02-15T08:36:51.923Z,100.00
2023-02-15T08:40:53.926Z,100.00
2023-02-15T08:44:55.975Z,100.00
2023-02-15T08:48:58.634Z,100.00
2023-02-15T08:53:00.641Z,100.00
2023-02-15T08:57:02.673Z,100.00
2023-02-15T09:01:19.005Z,100.00
2023-02-15T09:05:21.119Z,100.00
2023-02-15T09:09:23.136Z,100.00
2023-02-15T09:13:25.167Z,100.00
2023-02-15T09:17:27.193Z,100.00
2023-02-15T09:21:29.524Z,100.00
2023-02-15T09:25:31.562Z,100.00
2023-02-15T09:29:33.559Z,100.00
2023-02-15T09:33:37.111Z,100.00
2023-02-15T09:37:39.139Z,100.00
2023-02-15T09:42:27.480Z,100.00
2023-02-15T09:46:32.415Z,100.00
2023-02-15T09:51:08.634Z,100.00
2023-02-15T09:55:35.793Z,100.00
2023-02-15T10:00:05.118Z,100.00
2023-02-15T10:04:35.628Z,100.00
2023-02-15T10:08:40.353Z,100.00
2023-02-15T10:13:10.660Z,100.00
2023-02-15T10:17:23.151Z,100.00
2023-02-15T10:21:41.343Z,100.00
2023-02-15T10:25:52.056Z,100.00
2023-02-15T10:30:09.161Z,100.00
2023-02-15T10:34:37.895Z,100.00
2023-02-15T10:38:53.923Z,100.00
2023-02-15T10:43:10.127Z,98.88
2023-02-15T10:47:18.073Z,97.84
2023-02-15T10:51:34.420Z,96.59
2023-02-15T10:55:39.342Z,96.45
2023-02-15T11:00:02.036Z,95.19
2023-02-15T11:04:26.922Z,95.77
2023-02-15T11:08:32.493Z,94.50
2023-02-15T11:12:34.770Z,92.86
2023-02-15T11:16:45.273Z,92.55
2023-02-15T11:21:10.624Z,91.42
2023-02-15T11:25:20.274Z,90.31
2023-02-15T11:29:39.538Z,89.40
2023-02-15T11:33:46.981Z,89.09
2023-02-15T11:38:15.945Z,88.10
2023-02-15T11:42:23.226Z,89.24
2023-02-15T11:46:25.534Z,88.55
2023-02-15T11:50:31.689Z,88.48
2023-02-15T11:54:36.666Z,87.64
2023-02-15T11:59:13.428Z,88.21
2023-02-15T12:03:23.608Z,87.47
2023-02-15T12:07:28.355Z,86.18
2023-02-15T12:11:36.136Z,86.04
2023-02-15T12:15:39.073Z,85.52
2023-02-15T12:19:43.947Z,84.68
2023-02-15T12:23:52.670Z,85.06
2023-02-15T12:27:55.234Z,84.86
2023-02-15T12:31:58.286Z,85.21
2023-02-15T12:36:13.318Z,84.10
2023-02-15T12:40:30.940Z,85.03
2023-02-15T12:44:35.670Z,85.16
2023-02-15T12:48:40.812Z,85.70
2023-02-15T12:52:44.936Z,85.45
2023-02-15T12:56:46.946Z,86.07
2023-02-15T13:00:49.112Z,85.61
2023-02-15T13:04:51.736Z,86.28
2023-02-15T13:08:56.846Z,85.70
2023-02-15T13:12:59.576Z,85.44
2023-02-15T13:17:06.157Z,86.07
2023-02-15T13:21:25.969Z,85.69
2023-02-15T13:25:35.355Z,86.69
2023-02-15T13:29:39.464Z,89.09
2023-02-15T13:33:46.651Z,86.51
2023-02-15T13:37:48.532Z,86.62
2023-02-15T13:42:09.294Z,86.61
2023-02-15T13:46:23.662Z,85.69
2023-02-15T13:50:50.618Z,86.32
2023-02-15T13:55:30.393Z,86.39
2023-02-15T13:59:45.742Z,86.40
2023-02-15T14:04:08.049Z,86.44
2023-02-15T14:08:15.682Z,86.75
2023-02-15T14:12:26.144Z,87.30
2023-02-15T14:16:41.254Z,87.90
2023-02-15T14:21:18.768Z,87.42
2023-02-15T14:25:44.890Z,87.95
2023-02-15T14:29:58.760Z,88.18
2023-02-15T14:34:00.812Z,87.23
2023-02-15T14:38:22.527Z,88.22
2023-02-15T14:42:43.270Z,88.46
2023-02-15T14:47:05.583Z,88.43
2023-02-15T14:51:07.636Z,88.08
2023-02-15T14:55:09.635Z,87.61
2023-02-15T14:59:20.565Z,87.98
2023-02-15T15:03:26.121Z,88.26
2023-02-15T15:07:50.750Z,88.71
2023-02-15T15:11:55.169Z,89.48
2023-02-15T15:16:18.108Z,90.41
2023-02-15T15:20:42.804Z,90.05
2023-02-15T15:24:44.789Z,90.97
2023-02-15T15:28:49.838Z,90.56
2023-02-15T15:32:54.890Z,91.02
2023-02-15T15:37:19.639Z,91.00
2023-02-15T15:42:09.696Z,91.10
2023-02-15T15:46:11.704Z,91.42
2023-02-15T15:50:17.922Z,91.39
2023-02-15T15:54:26.923Z,91.53
2023-02-15T15:58:31.488Z,92.23
2023-02-15T16:02:33.690Z,92.20
2023-02-15T16:06:38.859Z,93.55
2023-02-15T16:10:41.385Z,93.97
2023-02-15T16:14:45.241Z,93.34
2023-02-15T16:18:48.485Z,94.28
2023-02-15T16:22:59.347Z,94.63
2023-02-15T16:27:20.609Z,94.49
2023-02-15T16:31:23.926Z,94.77
2023-02-15T16:35:26.058Z,95.58
2023-02-15T16:39:28.087Z,96.04
2023-02-15T16:43:32.639Z,96.50
2023-02-15T16:47:41.270Z,95.58
2023-02-15T16:51:47.836Z,97.22
2023-02-15T16:55:56.910Z,98.31
2023-02-15T17:00:05.767Z,98.54
2023-02-15T17:04:21.415Z,99.01
2023-02-15T17:08:42.318Z,100.00
2023-02-15T17:12:45.948Z,100.00
2023-02-15T17:16:55.073Z,100.00
2023-02-15T17:21:01.727Z,100.00
2023-02-15T17:25:05.407Z,100.00
2023-02-15T17:29:22.354Z,100.00
2023-02-15T17:33:40.180Z,100.00
2023-02-15T17:37:49.969Z,100.00
2023-02-15T17:41:53.906Z,100.00
2023-02-15T17:45:58.437Z,100.00
2023-02-15T17:50:03.695Z,100.00
2023-02-15T17:54:24.452Z,100.00
2023-02-15T17:58:26.560Z,100.00
2023-02-15T18:02:53.409Z,100.00
2023-02-15T18:07:15.488Z,100.00
2023-02-15T18:11:36.014Z,100.00
2023-02-15T18:15:38.157Z,100.00
2023-02-15T18:19:42.429Z,100.00
2023-02-15T18:23:44.598Z,100.00
2023-02-15T18:27:47.075Z,100.00
2023-02-15T18:31:54.139Z,100.00
2023-02-15T18:35:56.134Z,100.00
2023-02-15T18:39:58.186Z,100.00
2023-02-15T18:44:00.202Z,100.00
2023-02-15T18:48:02.245Z,100.00
2023-02-15T18:52:04.408Z,100.00
2023-02-15T18:56:06.555Z,100.00
2023-02-15T19:00:16.213Z,100.00
2023-02-15T19:04:18.708Z,100.00
2023-02-15T19:08:24.661Z,100.00
2023-02-15T19:12:28.328Z,100.00
2023-02-15T19:16:33.180Z,100.00
2023-02-15T19:20:41.310Z,100.00
2023-02-15T19:24:45.605Z,100.00
2023-02-15T19:28:48.256Z,100.00
2023-02-15T19:32:50.291Z,100.00
2023-02-15T19:36:54.361Z,100.00
2023-02-15T19:41:08.412Z,100.00
2023-02-15T19:45:17.783Z,100.00
2023-02-15T19:49:19.919Z,100.00
2023-02-15T19:53:27.406Z,100.00
2023-02-15T19:57:31.438Z,100.00
2023-02-15T20:01:33.527Z,100.00
2023-02-15T20:05:38.354Z,100.00
2023-02-15T20:09:41.320Z,100.00
2023-02-15T20:13:43.354Z,100.00
2023-02-15T20:17:45.344Z,100.00
2023-02-15T20:21:54.523Z,100.00
2023-02-15T20:26:02.568Z,100.00
2023-02-15T20:30:13.903Z,100.00
2023-02-15T20:34:16.087Z,100.00
2023-02-15T20:38:19.635Z,100.00
2023-02-15T20:42:21.751Z,100.00
2023-02-15T20:46:24.455Z,100.00
2023-02-15T20:50:30.212Z,100.00
2023-02-15T20:54:35.808Z,100.00
2023-02-15T20:58:38.513Z,100.00
2023-02-15T21:02:40.677Z,100.00
2023-02-15T21:06:42.726Z,100.00
2023-02-15T21:10:46.797Z,100.00
2023-02-15T21:14:48.877Z,100.00
2023-02-15T21:18:50.885Z,100.00
2023-02-15T21:22:53.486Z,100.00
2023-02-15T21:26:58.539Z,100.00
2023-02-15T21:31:00.780Z,100.00
2023-02-15T21:35:02.966Z,100.00
2023-02-15T21:39:05.446Z,100.00
2023-02-15T21:43:33.694Z,100.00
2023-02-15T21:47:50.655Z,100.00
2023-02-15T21:52:11.359Z,100.00
2023-02-15T21:56:19.035Z,100.00
2023-02-15T22:00:23.296Z,100.00
2023-02-15T22:04:26.958Z,100.00
2023-02-15T22:08:29.581Z,100.00
2023-02-15T22:12:31.724Z,100.00
2023-02-15T22:16:33.745Z,100.00
2023-02-15T22:20:35.842Z,100.00
2023-02-15T22:24:38.178Z,100.00
2023-02-15T22:28:42.256Z,100.00
2023-02-15T22:32:44.302Z,100.00
2023-02-15T22:36:46.355Z,100.00
2023-02-15T22:40:50.260Z,100.00
2023-02-15T22:44:56.858Z,100.00
2023-02-15T22:48:58.906Z,100.00
2023-02-15T22:53:01.834Z,100.00
2023-02-15T22:57:06.216Z,100.00
2023-02-15T23:01:25.705Z,100.00
2023-02-15T23:05:30.162Z,100.00
2023-02-15T23:09:32.627Z,100.00
2023-02-15T23:13:34.694Z,100.00
2023-02-15T23:17:36.771Z,100.00
2023-02-15T23:21:38.805Z,100.00
2023-02-15T23:25:41.570Z,100.00
2023-02-15T23:29:43.672Z,100.00
2023-02-15T23:33:46.393Z,100.00
2023-02-15T23:37:48.559Z,100.00
2023-02-15T23:41:51.189Z,100.00
2023-02-15T23:45:53.343Z,100.00
2023-02-15T23:49:55.378Z,100.00
2023-02-15T23:53:58.280Z,100.00
2023-02-15T23:58:00.421Z,100.00
